createdAt,value
2022-10-09T00:01:04.715Z,9.94
2022-10-09T00:04:06.946Z,9.88
2022-10-09T00:07:09.115Z,9.90
2022-10-09T00:10:11.303Z,10.03
2022-10-09T00:13:13.599Z,10.04
2022-10-09T00:16:17.107Z,10.06
2022-10-09T00:19:19.353Z,10.18
2022-10-09T00:22:21.526Z,10.19
2022-10-09T00:25:23.694Z,10.06
2022-10-09T00:28:27.715Z,10.05
2022-10-09T00:31:30.101Z,10.09
2022-10-09T00:34:32.422Z,10.05
2022-10-09T00:37:34.649Z,9.98
2022-10-09T00:40:37.594Z,9.91
2022-10-09T00:43:47.874Z,9.87
2022-10-09T00:46:51.078Z,9.84
2022-10-09T00:49:56.066Z,9.95
2022-10-09T00:53:00.357Z,9.84
2022-10-09T00:56:02.614Z,9.84
2022-10-09T00:59:05.501Z,10.04
2022-10-09T01:02:07.952Z,9.91
2022-10-09T01:05:10.888Z,9.96
2022-10-09T01:08:38.460Z,9.96
2022-10-09T01:11:57.502Z,9.89
2022-10-09T01:15:02.801Z,9.97
2022-10-09T01:18:13.009Z,10.01
2022-10-09T01:21:41.879Z,10.00
2022-10-09T01:25:09.434Z,9.85
2022-10-09T01:28:13.047Z,9.84
2022-10-09T01:31:17.316Z,9.87
2022-10-09T01:34:20.498Z,9.80
2022-10-09T01:37:23.578Z,9.78
2022-10-09T01:40:26.981Z,9.75
2022-10-09T01:43:29.108Z,9.74
2022-10-09T01:46:32.816Z,9.74
2022-10-09T01:49:54.131Z,9.69
2022-10-09T01:53:01.615Z,9.70
2022-10-09T01:56:14.991Z,9.68
2022-10-09T01:59:18.955Z,9.96
2022-10-09T02:02:21.723Z,9.85
2022-10-09T02:05:26.957Z,9.82
2022-10-09T02:08:30.783Z,9.73
2022-10-09T02:11:33.476Z,9.75
2022-10-09T02:14:36.699Z,9.87
2022-10-09T02:17:44.428Z,9.58
2022-10-09T02:20:50.404Z,9.47
2022-10-09T02:23:53.702Z,9.60
2022-10-09T02:26:57.496Z,9.72
2022-10-09T02:30:00.438Z,9.79
2022-10-09T02:33:04.671Z,9.63
2022-10-09T02:36:06.943Z,9.58
2022-10-09T02:39:09.623Z,9.61
2022-10-09T02:42:11.993Z,9.65
2022-10-09T02:45:14.321Z,9.66
2022-10-09T02:48:16.530Z,9.72
2022-10-09T02:51:18.849Z,9.99
2022-10-09T02:54:21.004Z,9.85
2022-10-09T02:57:23.215Z,9.75
2022-10-09T03:00:25.372Z,9.54
2022-10-09T03:03:27.528Z,9.48
2022-10-09T03:06:29.687Z,9.55
2022-10-09T03:09:33.883Z,9.48
2022-10-09T03:12:36.170Z,9.58
2022-10-09T03:15:38.472Z,9.62
2022-10-09T03:18:40.877Z,9.65
2022-10-09T03:21:43.077Z,9.68
2022-10-09T03:24:45.254Z,9.74
2022-10-09T03:27:47.385Z,9.54
2022-10-09T03:30:49.560Z,9.41
2022-10-09T03:33:51.773Z,9.40
2022-10-09T03:36:53.907Z,9.42
2022-10-09T03:39:56.160Z,9.54
2022-10-09T03:42:58.423Z,9.62
2022-10-09T03:46:04.529Z,9.76
2022-10-09T03:49:06.847Z,9.57
2022-10-09T03:52:09.057Z,9.58
2022-10-09T03:55:11.254Z,9.64
2022-10-09T03:58:13.433Z,9.74
2022-10-09T04:01:15.732Z,9.75
2022-10-09T04:04:18.167Z,9.75
2022-10-09T04:07:20.400Z,9.73
2022-10-09T04:10:22.987Z,9.69
2022-10-09T04:13:25.293Z,9.57
2022-10-09T04:16:27.505Z,9.72
2022-10-09T04:19:29.697Z,9.98
2022-10-09T04:22:31.874Z,9.95
2022-10-09T04:25:34.236Z,9.67
2022-10-09T04:28:36.477Z,9.88
2022-10-09T04:31:38.705Z,10.10
2022-10-09T04:34:41.086Z,10.03
2022-10-09T04:37:43.234Z,9.81
2022-10-09T04:40:46.054Z,9.97
2022-10-09T04:43:48.246Z,9.88
2022-10-09T04:46:51.611Z,10.02
2022-10-09T04:49:53.861Z,10.26
2022-10-09T04:52:55.998Z,10.31
2022-10-09T04:55:58.248Z,10.31
2022-10-09T04:59:00.448Z,10.06
2022-10-09T05:02:02.667Z,10.02
2022-10-09T05:05:05.211Z,9.85
2022-10-09T05:08:07.448Z,9.75
2022-10-09T05:11:12.132Z,9.99
2022-10-09T05:14:14.515Z,10.26
2022-10-09T05:17:20.657Z,10.46
2022-10-09T05:20:25.073Z,10.41
2022-10-09T05:23:27.526Z,10.59
2022-10-09T05:26:29.837Z,10.56
2022-10-09T05:29:33.012Z,10.28
2022-10-09T05:32:35.178Z,10.28
2022-10-09T05:35:37.316Z,10.25
2022-10-09T05:38:40.303Z,10.08
2022-10-09T05:41:42.453Z,10.17
2022-10-09T05:44:44.612Z,10.43
2022-10-09T05:47:46.814Z,10.64
2022-10-09T05:50:49.052Z,10.75
2022-10-09T05:53:51.821Z,10.87
2022-10-09T05:56:53.947Z,10.83
2022-10-09T05:59:56.109Z,10.69
2022-10-09T06:02:58.330Z,10.50
2022-10-09T06:06:01.913Z,10.46
2022-10-09T06:09:04.616Z,10.52
2022-10-09T06:12:06.887Z,11.04
2022-10-09T06:15:09.362Z,11.34
2022-10-09T06:18:11.507Z,11.46
2022-10-09T06:21:14.935Z,11.62
2022-10-09T06:24:27.824Z,11.96
2022-10-09T06:27:31.193Z,11.98
2022-10-09T06:30:37.807Z,12.16
2022-10-09T06:33:44.634Z,12.50
2022-10-09T06:36:46.793Z,12.68
2022-10-09T06:39:48.938Z,12.98
2022-10-09T06:42:51.642Z,13.13
2022-10-09T06:45:54.091Z,13.27
2022-10-09T06:48:56.501Z,13.33
2022-10-09T06:51:58.639Z,13.59
2022-10-09T06:55:00.817Z,13.69
2022-10-09T06:58:03.184Z,13.74
2022-10-09T07:01:05.462Z,13.89
2022-10-09T07:04:11.823Z,14.03
2022-10-09T07:07:13.989Z,14.24
2022-10-09T07:10:16.268Z,14.35
2022-10-09T07:13:18.442Z,14.36
2022-10-09T07:16:22.487Z,14.44
2022-10-09T07:19:24.724Z,14.52
2022-10-09T07:22:27.246Z,14.53
2022-10-09T07:25:29.736Z,14.48
2022-10-09T07:28:32.027Z,14.53
2022-10-09T07:31:34.327Z,14.52
2022-10-09T07:34:36.565Z,14.80
2022-10-09T07:37:38.704Z,14.69
2022-10-09T07:40:40.861Z,14.70
2022-10-09T07:43:43.170Z,14.77
2022-10-09T07:46:45.512Z,14.86
2022-10-09T07:49:47.813Z,14.88
2022-10-09T07:52:50.295Z,14.91
2022-10-09T07:55:52.667Z,14.98
2022-10-09T07:58:56.923Z,15.14
2022-10-09T08:01:59.156Z,15.31
2022-10-09T08:05:01.341Z,15.49
2022-10-09T08:08:03.567Z,15.52
2022-10-09T08:11:13.224Z,15.65
2022-10-09T08:14:19.226Z,15.61
2022-10-09T08:17:21.830Z,15.77
2022-10-09T08:20:24.143Z,15.85
2022-10-09T08:23:26.871Z,15.94
2022-10-09T08:26:30.155Z,16.03
2022-10-09T08:29:36.634Z,15.93
2022-10-09T08:32:41.607Z,16.05
2022-10-09T08:35:43.981Z,16.15
2022-10-09T08:38:47.881Z,16.20
2022-10-09T08:41:53.443Z,16.43
2022-10-09T08:44:55.627Z,16.27
2022-10-09T08:48:01.073Z,16.64
2022-10-09T08:51:03.940Z,16.63
2022-10-09T08:54:35.999Z,16.66
2022-10-09T08:57:39.541Z,16.81
2022-10-09T09:00:45.890Z,17.16
2022-10-09T09:03:50.728Z,17.45
2022-10-09T09:06:58.649Z,17.23
2022-10-09T09:10:14.997Z,17.47
2022-10-09T09:13:29.516Z,17.73
2022-10-09T09:16:48.042Z,17.94
2022-10-09T09:19:57.413Z,17.66
2022-10-09T09:23:01.260Z,17.27
2022-10-09T09:26:04.390Z,17.65
2022-10-09T09:29:06.762Z,17.48
2022-10-09T09:32:16.579Z,17.72
2022-10-09T09:35:51.188Z,17.45
2022-10-09T09:39:40.793Z,17.41
2022-10-09T09:42:18.275Z,17.50
2022-10-09T09:45:23.399Z,17.70
2022-10-09T09:48:28.551Z,17.60
2022-10-09T09:51:32.336Z,18.03
2022-10-09T09:54:34.531Z,18.66
2022-10-09T09:57:40.541Z,19.19
2022-10-09T10:00:53.692Z,19.55
2022-10-09T10:04:01.180Z,19.48
2022-10-09T10:07:05.921Z,19.10
2022-10-09T10:10:26.633Z,18.78
2022-10-09T10:13:35.944Z,18.57
2022-10-09T10:16:38.875Z,18.62
2022-10-09T10:19:41.373Z,18.67
2022-10-09T10:22:53.859Z,18.67
2022-10-09T10:25:57.276Z,18.80
2022-10-09T10:29:08.082Z,18.78
2022-10-09T10:32:17.528Z,18.63
2022-10-09T10:35:29.952Z,18.76
2022-10-09T10:38:52.406Z,19.04
2022-10-09T10:41:57.581Z,19.28
2022-10-09T10:45:19.530Z,19.41
2022-10-09T10:48:25.588Z,19.62
2022-10-09T10:51:46.307Z,19.55
2022-10-09T10:54:53.824Z,19.61
2022-10-09T10:58:04.911Z,19.61
2022-10-09T11:01:22.170Z,19.34
2022-10-09T11:04:54.662Z,19.14
2022-10-09T11:08:08.263Z,18.80
2022-10-09T11:11:16.449Z,18.54
2022-10-09T11:14:30.709Z,18.33
2022-10-09T11:17:46.220Z,18.14
2022-10-09T11:20:54.102Z,18.29
2022-10-09T11:24:09.108Z,18.19
2022-10-09T11:27:17.822Z,18.00
2022-10-09T11:30:20.203Z,17.93
2022-10-09T11:33:33.320Z,18.35
2022-10-09T11:36:43.935Z,18.66
2022-10-09T11:39:46.571Z,18.60
2022-10-09T11:43:08.899Z,18.55
2022-10-09T11:46:18.140Z,18.48
2022-10-09T11:49:52.872Z,18.44
2022-10-09T11:52:58.691Z,18.37
2022-10-09T11:56:05.026Z,18.35
2022-10-09T11:59:07.682Z,18.16
2022-10-09T12:02:24.491Z,18.13
2022-10-09T12:05:35.759Z,18.29
2022-10-09T12:08:57.997Z,18.72
2022-10-09T12:12:07.497Z,18.98
2022-10-09T12:15:12.547Z,19.17
2022-10-09T12:18:26.397Z,19.33
2022-10-09T12:21:32.867Z,19.34
2022-10-09T12:25:27.473Z,19.45
2022-10-09T12:28:35.867Z,19.14
2022-10-09T12:31:40.477Z,19.16
2022-10-09T12:34:47.234Z,19.10
2022-10-09T12:37:49.498Z,19.03
2022-10-09T12:40:52.189Z,19.03
2022-10-09T12:43:55.750Z,18.75
2022-10-09T12:47:09.332Z,19.07
2022-10-09T12:50:17.072Z,19.18
2022-10-09T12:53:30.117Z,19.36
2022-10-09T12:56:33.531Z,19.45
2022-10-09T12:59:35.745Z,19.41
2022-10-09T13:02:37.951Z,19.45
2022-10-09T13:05:41.732Z,19.45
2022-10-09T13:08:44.358Z,19.38
2022-10-09T13:11:52.926Z,19.34
2022-10-09T13:14:58.650Z,19.44
2022-10-09T13:18:01.417Z,19.43
2022-10-09T13:21:18.994Z,19.21
2022-10-09T13:24:21.309Z,19.18
2022-10-09T13:27:33.216Z,19.07
2022-10-09T13:30:35.421Z,19.18
2022-10-09T13:33:37.714Z,19.20
2022-10-09T13:36:40.094Z,19.14
2022-10-09T13:39:42.375Z,19.07
2022-10-09T13:42:52.625Z,18.88
2022-10-09T13:45:55.056Z,18.65
2022-10-09T13:48:57.320Z,18.90
2022-10-09T13:51:59.472Z,19.07
2022-10-09T13:55:01.665Z,19.08
2022-10-09T13:58:03.939Z,18.88
2022-10-09T14:01:08.318Z,18.87
2022-10-09T14:04:10.524Z,18.80
2022-10-09T14:07:13.026Z,18.88
2022-10-09T14:10:18.236Z,18.85
2022-10-09T14:13:23.250Z,18.78
2022-10-09T14:16:26.652Z,18.89
2022-10-09T14:19:28.843Z,18.69
2022-10-09T14:22:31.290Z,18.52
2022-10-09T14:25:36.657Z,18.57
2022-10-09T14:28:38.931Z,18.64
2022-10-09T14:31:41.224Z,18.65
2022-10-09T14:34:43.425Z,18.67
2022-10-09T14:37:45.623Z,18.68
2022-10-09T14:40:47.802Z,18.54
2022-10-09T14:43:56.764Z,18.48
2022-10-09T14:46:59.162Z,18.39
2022-10-09T14:50:01.456Z,18.36
2022-10-09T14:53:03.695Z,18.24
2022-10-09T14:56:08.101Z,18.18
2022-10-09T14:59:10.287Z,18.10
2022-10-09T15:02:15.151Z,18.05
2022-10-09T15:05:17.412Z,17.88
2022-10-09T15:08:19.611Z,17.82
2022-10-09T15:11:22.083Z,17.69
2022-10-09T15:14:24.217Z,17.57
2022-10-09T15:17:26.451Z,17.45
2022-10-09T15:20:28.735Z,17.32
2022-10-09T15:23:31.501Z,17.15
2022-10-09T15:26:36.428Z,17.11
2022-10-09T15:29:38.567Z,16.99
2022-10-09T15:32:43.139Z,17.01
2022-10-09T15:35:45.542Z,16.80
2022-10-09T15:38:47.857Z,16.69
2022-10-09T15:41:50.282Z,16.57
2022-10-09T15:44:54.142Z,16.47
2022-10-09T15:47:56.293Z,16.42
2022-10-09T15:51:04.069Z,16.48
2022-10-09T15:54:06.444Z,16.31
2022-10-09T15:57:11.311Z,16.24
2022-10-09T16:00:14.189Z,16.08
2022-10-09T16:03:17.333Z,15.95
2022-10-09T16:06:22.604Z,15.93
2022-10-09T16:09:25.188Z,15.82
2022-10-09T16:12:27.521Z,15.83
2022-10-09T16:15:29.719Z,15.69
2022-10-09T16:18:31.990Z,15.55
2022-10-09T16:21:34.354Z,15.41
2022-10-09T16:24:36.505Z,15.31
2022-10-09T16:27:38.689Z,15.29
2022-10-09T16:30:42.848Z,15.23
2022-10-09T16:33:45.142Z,15.22
2022-10-09T16:36:47.306Z,15.20
2022-10-09T16:39:49.522Z,15.23
2022-10-09T16:42:51.973Z,15.25
2022-10-09T16:45:54.384Z,15.26
2022-10-09T16:48:57.285Z,15.17
2022-10-09T16:52:00.615Z,15.14
2022-10-09T16:55:03.001Z,15.11
2022-10-09T16:58:05.215Z,15.05
2022-10-09T17:01:10.177Z,15.00
2022-10-09T17:04:13.174Z,14.91
2022-10-09T17:07:15.516Z,14.88
2022-10-09T17:10:17.690Z,14.78
2022-10-09T17:13:19.934Z,14.78
2022-10-09T17:16:23.126Z,14.76
2022-10-09T17:19:25.552Z,14.60
2022-10-09T17:22:27.728Z,14.51
2022-10-09T17:25:30.395Z,14.42
2022-10-09T17:28:34.584Z,14.34
2022-10-09T17:31:36.885Z,14.15
2022-10-09T17:34:43.093Z,14.23
2022-10-09T17:37:45.312Z,14.18
2022-10-09T17:40:47.605Z,14.08
2022-10-09T17:43:50.907Z,14.13
2022-10-09T17:46:53.043Z,14.11
2022-10-09T17:49:55.358Z,14.11
2022-10-09T17:52:57.527Z,14.02
2022-10-09T17:56:03.728Z,14.02
2022-10-09T17:59:05.987Z,13.93
2022-10-09T18:02:08.178Z,13.98
2022-10-09T18:05:10.342Z,13.98
2022-10-09T18:08:14.219Z,13.90
2022-10-09T18:11:17.076Z,13.90
2022-10-09T18:14:19.298Z,13.86
2022-10-09T18:17:21.797Z,13.92
2022-10-09T18:20:24.004Z,13.80
2022-10-09T18:23:26.215Z,13.86
2022-10-09T18:26:28.599Z,13.82
2022-10-09T18:29:30.817Z,13.76
2022-10-09T18:32:32.986Z,13.80
2022-10-09T18:35:37.554Z,13.79
2022-10-09T18:38:40.268Z,13.69
2022-10-09T18:41:43.097Z,13.76
2022-10-09T18:44:45.355Z,13.77
2022-10-09T18:47:47.691Z,13.66
2022-10-09T18:50:50.320Z,13.71
2022-10-09T18:53:55.511Z,13.69
2022-10-09T18:56:57.967Z,13.69
2022-10-09T19:00:00.948Z,13.59
2022-10-09T19:03:03.211Z,13.54
2022-10-09T19:06:05.743Z,13.41
2022-10-09T19:09:08.045Z,13.36
2022-10-09T19:12:10.293Z,13.30
2022-10-09T19:15:12.587Z,13.25
2022-10-09T19:18:14.764Z,13.18
2022-10-09T19:21:16.933Z,13.07
2022-10-09T19:24:19.153Z,12.85
2022-10-09T19:27:25.752Z,12.86
2022-10-09T19:30:28.705Z,12.82
2022-10-09T19:33:31.126Z,12.82
2022-10-09T19:36:35.062Z,12.96
2022-10-09T19:39:37.264Z,12.82
2022-10-09T19:42:39.441Z,12.79
2022-10-09T19:45:41.789Z,12.67
2022-10-09T19:48:44.881Z,12.66
2022-10-09T19:51:47.187Z,12.69
2022-10-09T19:54:49.414Z,12.68
2022-10-09T19:57:51.862Z,12.65
2022-10-09T20:00:54.279Z,12.56
2022-10-09T20:04:02.243Z,12.48
2022-10-09T20:07:07.850Z,12.40
2022-10-09T20:10:15.715Z,12.29
2022-10-09T20:13:17.867Z,12.32
2022-10-09T20:16:20.025Z,12.23
2022-10-09T20:19:22.289Z,12.21
2022-10-09T20:22:24.491Z,12.23
2022-10-09T20:25:27.649Z,12.26
2022-10-09T20:28:34.323Z,12.22
2022-10-09T20:31:36.488Z,12.14
2022-10-09T20:34:38.785Z,12.10
2022-10-09T20:37:40.958Z,12.15
2022-10-09T20:40:43.129Z,12.27
2022-10-09T20:43:45.530Z,12.17
2022-10-09T20:46:47.788Z,12.05
2022-10-09T20:49:50.013Z,12.12
2022-10-09T20:52:52.615Z,12.02
2022-10-09T20:56:03.303Z,12.03
2022-10-09T20:59:05.511Z,11.96
2022-10-09T21:02:07.742Z,11.95
2022-10-09T21:05:09.886Z,11.95
2022-10-09T21:08:12.081Z,11.75
2022-10-09T21:11:17.126Z,11.84
2022-10-09T21:14:19.416Z,11.75
2022-10-09T21:17:21.640Z,11.72
2022-10-09T21:20:23.804Z,11.67
2022-10-09T21:23:26.003Z,11.50
2022-10-09T21:26:29.579Z,11.61
2022-10-09T21:29:31.721Z,11.64
2022-10-09T21:32:33.890Z,11.62
2022-10-09T21:35:50.338Z,11.50
2022-10-09T21:38:52.661Z,11.53
2022-10-09T21:41:54.841Z,11.58
2022-10-09T21:44:57.006Z,11.60
2022-10-09T21:47:59.313Z,11.44
2022-10-09T21:51:01.541Z,11.35
2022-10-09T21:54:03.785Z,11.43
2022-10-09T21:57:05.954Z,11.39
2022-10-09T22:00:08.835Z,11.33
2022-10-09T22:03:10.987Z,11.35
2022-10-09T22:06:18.701Z,11.31
2022-10-09T22:09:21.550Z,11.32
2022-10-09T22:12:23.767Z,11.24
2022-10-09T22:15:25.933Z,11.28
2022-10-09T22:18:28.092Z,11.22
2022-10-09T22:21:30.474Z,11.15
2022-10-09T22:24:32.648Z,11.18
2022-10-09T22:27:34.880Z,11.24
2022-10-09T22:30:37.044Z,11.13
2022-10-09T22:33:39.907Z,11.07
2022-10-09T22:36:42.181Z,11.09
2022-10-09T22:39:44.327Z,11.06
2022-10-09T22:42:46.855Z,11.12
2022-10-09T22:45:49.026Z,11.17
2022-10-09T22:48:51.789Z,11.27
2022-10-09T22:51:54.029Z,11.08
2022-10-09T22:54:56.693Z,11.09
2022-10-09T22:57:59.183Z,10.95
2022-10-09T23:01:11.832Z,11.15
2022-10-09T23:04:16.093Z,11.07
2022-10-09T23:07:18.268Z,11.18
2022-10-09T23:10:20.597Z,11.09
2022-10-09T23:13:22.766Z,10.97
2022-10-09T23:16:26.268Z,10.86
2022-10-09T23:19:28.500Z,10.98
2022-10-09T23:22:30.703Z,10.93
2022-10-09T23:25:32.824Z,10.84
2022-10-09T23:28:35.550Z,10.75
2022-10-09T23:31:37.904Z,10.61
2022-10-09T23:34:40.146Z,10.41
2022-10-09T23:37:42.324Z,10.38
2022-10-09T23:40:54.791Z,10.18
2022-10-09T23:43:57.203Z,9.89
2022-10-09T23:46:59.376Z,9.88
2022-10-09T23:50:01.683Z,10.08
2022-10-09T23:53:03.852Z,10.01
2022-10-09T23:56:20.027Z,9.81
2022-10-09T23:59:22.208Z,9.77
